createdAt,value
2018-06-03T00:01:11.328Z,32.95
2018-06-03T00:03:40.800Z,32.75
2018-06-03T00:06:10.221Z,29.15
2018-06-03T00:08:39.660Z,35.17
2018-06-03T00:11:09.076Z,28.95
2018-06-03T00:13:38.489Z,32.40
2018-06-03T00:16:07.942Z,34.05
2018-06-03T00:18:37.350Z,33.48
2018-06-03T00:21:23.791Z,34.73
2018-06-03T00:23:53.256Z,36.48
2018-06-03T00:26:22.749Z,33.67
2018-06-03T00:28:52.167Z,38.88
2018-06-03T00:31:21.596Z,36.80
2018-06-03T00:33:51.051Z,33.33
2018-06-03T00:36:37.269Z,34.33
2018-06-03T00:39:08.841Z,40.38
2018-06-03T00:41:38.323Z,36.77
2018-06-03T00:44:07.760Z,34.58
2018-06-03T00:46:37.182Z,36.08
2018-06-03T00:49:06.774Z,37.80
2018-06-03T00:51:36.216Z,37.05
2018-06-03T00:54:05.629Z,32.98
2018-06-03T00:57:42.285Z,33.05
2018-06-03T01:00:11.874Z,35.30
2018-06-03T01:02:41.316Z,35.85
2018-06-03T01:05:10.753Z,37.45
2018-06-03T01:07:40.152Z,38.63
2018-06-03T01:10:09.576Z,39.23
2018-06-03T01:12:39.008Z,39.10
2018-06-03T01:15:08.551Z,39.10
2018-06-03T01:17:37.971Z,41.35
2018-06-03T01:20:07.355Z,41.10
2018-06-03T01:22:36.946Z,39.65
2018-06-03T01:25:06.368Z,40.12
2018-06-03T01:27:35.809Z,39.53
2018-06-03T01:30:05.325Z,41.70
2018-06-03T01:32:34.813Z,42.78
2018-06-03T01:35:04.257Z,39.10
2018-06-03T01:37:33.704Z,43.90
2018-06-03T01:40:03.149Z,39.75
2018-06-03T01:42:32.569Z,42.15
2018-06-03T01:45:01.990Z,39.88
2018-06-03T01:47:31.409Z,41.85
2018-06-03T01:50:00.903Z,44.20
2018-06-03T01:52:30.319Z,39.50
2018-06-03T01:54:59.731Z,43.20
2018-06-03T01:57:29.112Z,43.20
2018-06-03T01:59:58.562Z,42.17
2018-06-03T02:02:27.957Z,47.50
2018-06-03T02:04:57.400Z,46.45
2018-06-03T02:07:26.855Z,40.73
2018-06-03T02:09:56.296Z,48.00
2018-06-03T02:12:25.714Z,42.08
2018-06-03T02:14:55.139Z,45.80
2018-06-03T02:17:24.581Z,45.70
2018-06-03T02:19:54.030Z,49.18
2018-06-03T02:22:23.480Z,49.18
2018-06-03T02:24:52.897Z,47.13
2018-06-03T02:27:22.350Z,44.13
2018-06-03T02:29:51.785Z,48.20
2018-06-03T02:32:21.228Z,46.60
2018-06-03T02:34:51.721Z,53.55
2018-06-03T02:37:21.179Z,47.70
2018-06-03T02:39:50.642Z,43.33
2018-06-03T02:42:20.048Z,43.10
2018-06-03T02:44:49.506Z,43.38
2018-06-03T02:47:18.921Z,46.65
2018-06-03T02:49:48.334Z,49.35
2018-06-03T02:52:17.772Z,45.15
2018-06-03T02:54:47.201Z,51.00
2018-06-03T02:57:16.637Z,49.23
2018-06-03T02:59:46.051Z,47.80
2018-06-03T03:02:15.453Z,48.20
2018-06-03T03:04:44.864Z,53.13
2018-06-03T03:07:14.276Z,55.83
2018-06-03T03:09:43.701Z,50.40
2018-06-03T03:12:13.275Z,46.50
2018-06-03T03:14:42.712Z,58.42
2018-06-03T03:17:12.252Z,49.15
2018-06-03T03:19:41.728Z,55.60
2018-06-03T03:22:11.128Z,56.35
2018-06-03T03:24:40.544Z,52.33
2018-06-03T03:27:09.971Z,53.52
2018-06-03T03:29:39.387Z,52.90
2018-06-03T03:32:08.848Z,49.03
2018-06-03T03:34:38.285Z,52.70
2018-06-03T03:37:07.689Z,62.93
2018-06-03T03:39:37.105Z,52.78
2018-06-03T03:42:06.527Z,52.50
2018-06-03T03:44:35.938Z,53.30
2018-06-03T03:47:05.385Z,50.92
2018-06-03T03:49:34.800Z,53.40
2018-06-03T03:52:04.211Z,49.95
2018-06-03T03:54:33.623Z,50.85
2018-06-03T03:57:03.141Z,47.10
2018-06-03T03:59:32.267Z,54.20
2018-06-03T04:02:01.837Z,53.13
2018-06-03T04:04:31.233Z,47.98
2018-06-03T04:07:00.663Z,49.45
2018-06-03T04:09:30.108Z,49.03
2018-06-03T04:11:59.503Z,45.48
2018-06-03T04:14:28.949Z,51.70
2018-06-03T04:16:58.463Z,55.75
2018-06-03T04:19:27.864Z,50.75
2018-06-03T04:21:57.323Z,56.00
2018-06-03T04:24:26.722Z,50.90
2018-06-03T04:26:56.121Z,55.12
2018-06-03T04:29:25.545Z,56.92
2018-06-03T04:31:55.012Z,53.95
2018-06-03T04:34:24.433Z,49.05
2018-06-03T04:36:53.869Z,48.58
2018-06-03T04:39:23.289Z,58.10
2018-06-03T04:41:52.744Z,57.93
2018-06-03T04:44:22.200Z,53.58
2018-06-03T04:46:51.634Z,47.03
2018-06-03T04:49:21.095Z,53.68
2018-06-03T04:51:50.523Z,51.42
2018-06-03T04:54:19.947Z,55.65
2018-06-03T04:56:49.369Z,51.53
2018-06-03T04:59:18.845Z,57.38
2018-06-03T05:01:48.393Z,48.85
2018-06-03T05:04:17.862Z,53.13
2018-06-03T05:06:47.276Z,59.05
2018-06-03T05:09:17.488Z,55.60
2018-06-03T05:11:46.874Z,52.88
2018-06-03T05:14:16.282Z,42.55
2018-06-03T05:16:45.902Z,55.63
2018-06-03T05:19:15.400Z,54.63
2018-06-03T05:21:44.850Z,57.10
2018-06-03T05:24:14.248Z,54.03
2018-06-03T05:26:43.708Z,50.38
2018-06-03T05:29:13.134Z,58.10
2018-06-03T05:31:42.550Z,49.67
2018-06-03T05:34:11.948Z,54.60
2018-06-03T05:36:41.419Z,53.92
2018-06-03T05:39:10.944Z,54.95
2018-06-03T05:41:40.385Z,58.63
2018-06-03T05:44:09.832Z,62.60
2018-06-03T05:46:39.215Z,61.20
2018-06-03T05:49:08.647Z,53.87
2018-06-03T05:51:38.043Z,53.85
2018-06-03T05:54:07.906Z,56.08
2018-06-03T05:56:37.310Z,64.25
2018-06-03T05:59:06.745Z,54.38
2018-06-03T06:01:36.158Z,54.58
2018-06-03T06:04:05.599Z,51.08
2018-06-03T06:06:35.038Z,59.13
2018-06-03T06:09:06.446Z,55.83
2018-06-03T06:11:35.834Z,59.50
2018-06-03T06:14:05.261Z,61.60
2018-06-03T06:16:34.727Z,56.58
2018-06-03T06:19:04.187Z,64.70
2018-06-03T06:21:33.608Z,55.08
2018-06-03T06:24:03.159Z,59.45
2018-06-03T06:26:32.616Z,65.75
2018-06-03T06:29:02.242Z,53.30
2018-06-03T06:31:31.680Z,54.83
2018-06-03T06:34:01.167Z,53.17
2018-06-03T06:36:31.824Z,52.90
2018-06-03T06:39:02.141Z,59.77
2018-06-03T06:41:31.665Z,55.17
2018-06-03T06:44:01.269Z,50.20
2018-06-03T06:46:30.671Z,59.95
2018-06-03T06:49:00.834Z,56.35
2018-06-03T06:51:30.255Z,51.50
2018-06-03T06:54:00.511Z,54.50
2018-06-03T06:56:30.036Z,56.40
2018-06-03T06:58:59.453Z,55.35
2018-06-03T07:01:28.883Z,50.83
2018-06-03T07:03:58.295Z,57.20
2018-06-03T07:06:27.752Z,60.05
2018-06-03T07:08:57.162Z,55.95
2018-06-03T07:11:26.612Z,51.00
2018-06-03T07:13:56.092Z,50.98
2018-06-03T07:16:25.542Z,52.03
2018-06-03T07:18:54.986Z,50.38
2018-06-03T07:21:24.451Z,49.03
2018-06-03T07:23:54.072Z,45.50
2018-06-03T07:26:23.568Z,36.95
2018-06-03T07:28:52.992Z,44.95
2018-06-03T07:31:22.522Z,40.40
2018-06-03T07:33:51.959Z,45.17
2018-06-03T07:36:22.649Z,38.15
2018-06-03T07:38:52.080Z,42.33
2018-06-03T07:41:21.510Z,36.00
2018-06-03T07:43:51.051Z,35.45
2018-06-03T07:46:20.521Z,35.33
2018-06-03T07:48:49.938Z,34.08
2018-06-03T07:51:19.389Z,39.30
2018-06-03T07:53:48.811Z,37.40
2018-06-03T07:56:18.243Z,37.80
2018-06-03T07:58:47.669Z,35.48
2018-06-03T08:01:17.104Z,33.28
2018-06-03T08:03:46.565Z,33.88
2018-06-03T08:06:15.967Z,33.05
2018-06-03T08:08:45.424Z,39.88
2018-06-03T08:11:14.873Z,36.38
2018-06-03T08:13:44.353Z,37.75
2018-06-03T08:16:13.788Z,39.30
2018-06-03T08:18:43.227Z,41.48
2018-06-03T08:21:12.665Z,41.40
2018-06-03T08:23:42.457Z,43.58
2018-06-03T08:26:12.059Z,46.63
2018-06-03T08:28:41.479Z,41.80
2018-06-03T08:31:10.927Z,39.83
2018-06-03T08:33:40.339Z,33.50
2018-06-03T08:36:09.788Z,33.02
2018-06-03T08:38:39.300Z,33.25
2018-06-03T08:41:08.745Z,35.35
2018-06-03T08:43:38.210Z,39.95
2018-06-03T08:46:07.646Z,41.25
2018-06-03T08:48:37.140Z,37.42
2018-06-03T08:51:06.559Z,41.15
2018-06-03T08:53:35.995Z,40.75
2018-06-03T08:56:05.418Z,37.48
2018-06-03T08:58:34.855Z,35.55
2018-06-03T09:01:04.268Z,40.55
2018-06-03T09:03:33.716Z,40.03
2018-06-03T09:06:03.125Z,41.77
2018-06-03T09:08:32.611Z,42.15
2018-06-03T09:11:02.112Z,38.33
2018-06-03T09:13:31.582Z,40.17
2018-06-03T09:16:01.054Z,43.45
2018-06-03T09:18:30.459Z,42.60
2018-06-03T09:20:59.930Z,45.03
2018-06-03T09:23:29.369Z,40.30
2018-06-03T09:25:58.817Z,36.93
2018-06-03T09:28:28.257Z,40.03
2018-06-03T09:31:02.973Z,37.25
2018-06-03T09:33:32.401Z,38.95
2018-06-03T09:36:01.851Z,34.23
2018-06-03T09:38:31.309Z,37.58
2018-06-03T09:41:00.748Z,36.50
2018-06-03T09:43:30.183Z,33.85
2018-06-03T09:45:59.619Z,37.35
2018-06-03T09:48:29.094Z,35.50
2018-06-03T09:50:58.825Z,31.70
2018-06-03T09:53:28.338Z,34.75
2018-06-03T09:55:57.850Z,37.98
2018-06-03T09:58:27.284Z,38.42
2018-06-03T10:00:56.736Z,34.53
2018-06-03T10:03:26.183Z,33.78
2018-06-03T10:05:55.656Z,34.30
2018-06-03T10:08:25.102Z,35.50
2018-06-03T10:10:54.550Z,35.10
2018-06-03T10:13:23.971Z,36.15
2018-06-03T10:15:53.422Z,32.00
2018-06-03T10:18:22.910Z,33.75
2018-06-03T10:20:52.362Z,33.65
2018-06-03T10:23:21.800Z,27.42
2018-06-03T10:25:51.285Z,32.42
2018-06-03T10:28:20.791Z,29.15
2018-06-03T10:30:50.297Z,29.05
2018-06-03T10:33:19.783Z,29.72
2018-06-03T10:35:49.281Z,29.75
2018-06-03T10:38:18.909Z,27.48
2018-06-03T10:40:48.373Z,24.80
2018-06-03T10:43:17.835Z,24.82
2018-06-03T10:45:47.465Z,25.05
2018-06-03T10:48:17.062Z,23.80
2018-06-03T10:50:46.608Z,24.67
2018-06-03T10:53:16.210Z,27.62
2018-06-03T10:55:45.697Z,25.80
2018-06-03T10:58:15.219Z,22.70
2018-06-03T11:00:44.767Z,19.77
2018-06-03T11:03:14.316Z,21.57
2018-06-03T11:05:43.831Z,20.00
2018-06-03T11:08:13.313Z,17.07
2018-06-03T11:10:42.822Z,20.27
2018-06-03T11:13:12.249Z,19.42
2018-06-03T11:15:41.660Z,21.15
2018-06-03T11:18:11.110Z,19.85
2018-06-03T11:20:40.592Z,21.35
2018-06-03T11:23:10.088Z,19.20
2018-06-03T11:25:39.537Z,18.90
2018-06-03T11:28:08.992Z,18.52
2018-06-03T11:30:38.451Z,19.17
2018-06-03T11:33:07.858Z,18.23
2018-06-03T11:35:37.312Z,20.17
2018-06-03T11:38:07.450Z,19.40
2018-06-03T11:40:36.915Z,18.48
2018-06-03T11:43:06.347Z,17.67
2018-06-03T11:45:35.844Z,16.73
2018-06-03T11:48:05.275Z,15.98
2018-06-03T11:50:34.771Z,16.65
2018-06-03T11:53:04.257Z,18.37
2018-06-03T11:55:33.639Z,16.75
2018-06-03T11:58:51.897Z,14.35
2018-06-03T12:01:21.342Z,14.93
2018-06-03T12:03:50.772Z,15.72
2018-06-03T12:06:20.214Z,16.02
2018-06-03T12:08:49.688Z,16.48
2018-06-03T12:11:18.814Z,16.60
2018-06-03T12:13:48.249Z,17.80
2018-06-03T12:16:17.652Z,13.85
2018-06-03T12:18:47.121Z,15.23
2018-06-03T12:21:16.559Z,16.00
2018-06-03T12:23:45.985Z,16.52
2018-06-03T12:26:15.420Z,15.38
2018-06-03T12:28:44.919Z,15.75
2018-06-03T12:31:14.327Z,17.02
2018-06-03T12:33:43.784Z,17.07
2018-06-03T12:36:13.257Z,14.35
2018-06-03T12:38:42.715Z,13.08
2018-06-03T12:41:12.126Z,16.23
2018-06-03T12:43:41.593Z,14.78
2018-06-03T12:46:11.044Z,15.25
2018-06-03T12:48:40.456Z,16.97
2018-06-03T12:51:09.867Z,15.88
2018-06-03T12:53:39.303Z,15.32
2018-06-03T12:56:08.785Z,14.20
2018-06-03T12:58:38.207Z,17.87
2018-06-03T13:01:07.711Z,16.50
2018-06-03T13:03:37.112Z,17.27
2018-06-03T13:06:06.567Z,17.05
2018-06-03T13:08:35.975Z,16.23
2018-06-03T13:11:05.394Z,14.30
2018-06-03T13:13:34.818Z,14.05
2018-06-03T13:16:04.249Z,16.73
2018-06-03T13:18:33.689Z,13.50
2018-06-03T13:21:03.089Z,14.98
2018-06-03T13:23:32.513Z,17.10
2018-06-03T13:26:01.978Z,18.57
2018-06-03T13:28:31.468Z,15.75
2018-06-03T13:31:00.907Z,17.65
2018-06-03T13:33:30.327Z,15.23
2018-06-03T13:35:59.805Z,19.80
2018-06-03T13:38:29.240Z,17.80
2018-06-03T13:40:58.702Z,14.50
2018-06-03T13:43:28.116Z,14.58
2018-06-03T13:45:57.540Z,14.70
2018-06-03T13:48:26.695Z,14.43
2018-06-03T13:50:56.129Z,15.18
2018-06-03T13:53:25.578Z,14.58
2018-06-03T13:55:55.030Z,13.45
2018-06-03T13:58:24.450Z,13.60
2018-06-03T14:00:53.877Z,14.53
2018-06-03T14:03:23.306Z,13.00
2018-06-03T14:05:52.772Z,14.00
2018-06-03T14:08:22.194Z,14.73
2018-06-03T14:10:51.601Z,13.68
2018-06-03T14:13:21.069Z,12.82
2018-06-03T14:15:50.501Z,12.37
2018-06-03T14:18:19.923Z,13.05
2018-06-03T14:20:49.403Z,12.33
2018-06-03T14:23:18.560Z,12.73
2018-06-03T14:25:47.948Z,10.82
2018-06-03T14:28:17.350Z,11.97
2018-06-03T14:30:46.784Z,12.05
2018-06-03T14:33:16.219Z,11.18
2018-06-03T14:35:45.660Z,11.43
2018-06-03T14:38:15.073Z,13.28
2018-06-03T14:40:44.515Z,12.43
2018-06-03T14:43:13.949Z,12.65
2018-06-03T14:45:43.375Z,13.30
2018-06-03T14:48:12.831Z,12.03
2018-06-03T14:50:42.272Z,11.65
2018-06-03T14:53:11.724Z,11.08
2018-06-03T14:55:41.179Z,9.63
2018-06-03T14:58:10.621Z,9.73
2018-06-03T15:00:40.002Z,11.53
2018-06-03T15:03:09.434Z,10.15
2018-06-03T15:05:38.846Z,10.60
2018-06-03T15:08:08.320Z,10.58
2018-06-03T15:10:37.749Z,10.72
2018-06-03T15:13:07.170Z,10.45
2018-06-03T15:15:36.688Z,11.65
2018-06-03T15:18:06.133Z,12.37
2018-06-03T15:20:35.562Z,13.18
2018-06-03T15:23:05.099Z,12.50
2018-06-03T15:25:34.541Z,11.93
2018-06-03T15:28:03.985Z,11.80
2018-06-03T15:30:33.398Z,12.30
2018-06-03T15:33:02.825Z,11.45
2018-06-03T15:35:32.230Z,10.90
2018-06-03T15:38:01.649Z,10.63
2018-06-03T15:40:31.134Z,10.95
2018-06-03T15:43:00.556Z,10.75
2018-06-03T15:45:29.998Z,11.22
2018-06-03T15:47:59.455Z,10.05
2018-06-03T15:50:29.015Z,10.32
2018-06-03T15:52:58.458Z,9.20
2018-06-03T15:55:27.887Z,11.40
2018-06-03T15:57:57.322Z,9.40
2018-06-03T16:00:26.729Z,10.20
2018-06-03T16:02:56.162Z,9.78
2018-06-03T16:05:25.579Z,11.05
2018-06-03T16:07:55.060Z,9.90
2018-06-03T16:10:24.565Z,10.55
2018-06-03T16:12:53.980Z,10.20
2018-06-03T16:15:23.424Z,10.53
2018-06-03T16:17:52.847Z,8.53
2018-06-03T16:20:22.259Z,9.95
2018-06-03T16:22:51.701Z,9.48
2018-06-03T16:25:21.126Z,9.98
2018-06-03T16:27:50.615Z,11.00
2018-06-03T16:30:19.997Z,9.05
2018-06-03T16:32:49.414Z,9.80
2018-06-03T16:35:18.834Z,9.78
2018-06-03T16:37:47.987Z,9.93
2018-06-03T16:40:17.415Z,11.95
2018-06-03T16:42:46.831Z,10.15
2018-06-03T16:45:16.292Z,9.50
2018-06-03T16:47:45.719Z,11.15
2018-06-03T16:50:15.168Z,10.63
2018-06-03T16:52:44.624Z,10.13
2018-06-03T16:55:14.062Z,9.95
2018-06-03T16:57:43.459Z,8.95
2018-06-03T17:00:12.884Z,11.53
2018-06-03T17:02:42.315Z,10.38
2018-06-03T17:05:11.715Z,9.60
2018-06-03T17:07:41.117Z,9.00
2018-06-03T17:10:10.536Z,9.03
2018-06-03T17:12:39.991Z,8.28
2018-06-03T17:15:09.409Z,9.15
2018-06-03T17:17:38.909Z,8.85
2018-06-03T17:20:08.365Z,10.58
2018-06-03T17:22:37.818Z,9.45
2018-06-03T17:25:07.234Z,7.55
2018-06-03T17:27:36.671Z,7.28
2018-06-03T17:30:06.249Z,8.23
2018-06-03T17:32:35.667Z,9.98
2018-06-03T17:35:05.091Z,10.45
2018-06-03T17:37:34.505Z,10.82
2018-06-03T17:40:04.076Z,11.33
2018-06-03T17:42:33.493Z,9.30
2018-06-03T17:45:02.936Z,9.13
2018-06-03T17:47:32.564Z,10.28
2018-06-03T17:50:02.035Z,12.82
2018-06-03T17:52:31.476Z,9.23
2018-06-03T17:55:00.886Z,10.18
2018-06-03T17:57:30.291Z,8.83
2018-06-03T17:59:59.682Z,17.87
2018-06-03T18:02:29.091Z,12.00
2018-06-03T18:04:58.244Z,12.78
2018-06-03T18:07:27.734Z,11.40
2018-06-03T18:09:57.148Z,13.43
2018-06-03T18:12:26.586Z,14.10
2018-06-03T18:14:56.027Z,14.90
2018-06-03T18:17:25.434Z,14.28
2018-06-03T18:19:54.876Z,10.25
2018-06-03T18:22:24.364Z,10.32
2018-06-03T18:24:53.783Z,8.78
2018-06-03T18:27:23.213Z,7.90
2018-06-03T18:29:52.680Z,10.05
2018-06-03T18:32:22.252Z,6.25
2018-06-03T18:34:51.584Z,9.83
2018-06-03T18:37:21.003Z,6.28
2018-06-03T18:39:50.444Z,8.50
2018-06-03T18:42:20.097Z,7.20
2018-06-03T18:44:49.506Z,7.20
2018-06-03T18:47:18.930Z,7.05
2018-06-03T18:49:48.400Z,6.58
2018-06-03T18:52:17.847Z,7.15
2018-06-03T18:54:47.339Z,7.12
2018-06-03T18:57:16.758Z,7.10
2018-06-03T18:59:46.283Z,8.30
2018-06-03T19:02:15.749Z,6.60
2018-06-03T19:04:45.172Z,7.70
2018-06-03T19:07:14.602Z,6.60
2018-06-03T19:09:46.505Z,6.37
2018-06-03T19:12:21.356Z,6.08
2018-06-03T19:14:52.004Z,7.05
2018-06-03T19:17:25.242Z,7.15
2018-06-03T19:19:55.580Z,7.55
2018-06-03T19:22:25.921Z,6.95
2018-06-03T19:24:55.376Z,7.35
2018-06-03T19:27:24.885Z,7.47
2018-06-03T19:29:54.314Z,8.95
2018-06-03T19:32:23.716Z,7.65
2018-06-03T19:34:53.130Z,8.45
2018-06-03T19:37:22.523Z,9.00
2018-06-03T19:39:51.949Z,7.78
2018-06-03T19:42:21.490Z,7.60
2018-06-03T19:44:51.027Z,7.58
2018-06-03T19:47:20.468Z,7.37
2018-06-03T19:49:49.904Z,9.85
2018-06-03T19:52:19.417Z,9.05
2018-06-03T19:54:49.522Z,8.33
2018-06-03T19:57:18.948Z,7.60
2018-06-03T19:59:48.425Z,8.53
2018-06-03T20:02:17.811Z,9.18
2018-06-03T20:04:47.233Z,7.80
2018-06-03T20:07:16.656Z,8.95
2018-06-03T20:09:46.100Z,8.38
2018-06-03T20:12:15.569Z,8.23
2018-06-03T20:14:45.005Z,9.18
2018-06-03T20:17:14.432Z,9.38
2018-06-03T20:19:43.984Z,8.33
2018-06-03T20:22:13.550Z,10.03
2018-06-03T20:24:42.945Z,10.28
2018-06-03T20:27:12.363Z,9.68
2018-06-03T20:29:41.934Z,10.08
2018-06-03T20:32:11.569Z,9.45
2018-06-03T20:34:41.018Z,9.15
2018-06-03T20:37:10.460Z,8.85
2018-06-03T20:39:40.085Z,10.32
2018-06-03T20:42:09.513Z,11.25
2018-06-03T20:44:39.120Z,10.53
2018-06-03T20:47:08.590Z,10.03
2018-06-03T20:49:38.059Z,10.68
2018-06-03T20:52:07.498Z,9.95
2018-06-03T20:54:41.935Z,10.43
2018-06-03T20:57:11.486Z,10.80
2018-06-03T20:59:40.996Z,9.98
2018-06-03T21:02:11.409Z,10.30
2018-06-03T21:04:40.905Z,10.65
2018-06-03T21:07:10.324Z,10.78
2018-06-03T21:09:39.816Z,10.70
2018-06-03T21:12:09.293Z,10.40
2018-06-03T21:14:38.702Z,9.88
2018-06-03T21:17:08.141Z,11.55
2018-06-03T21:19:37.559Z,11.95
2018-06-03T21:22:06.997Z,11.50
2018-06-03T21:24:36.472Z,11.08
2018-06-03T21:27:05.952Z,13.03
2018-06-03T21:29:35.431Z,10.65
2018-06-03T21:32:04.944Z,12.33
2018-06-03T21:34:34.388Z,12.23
2018-06-03T21:37:03.855Z,13.28
2018-06-03T21:39:33.351Z,11.57
2018-06-03T21:42:02.831Z,11.35
2018-06-03T21:44:32.279Z,11.68
2018-06-03T21:47:01.734Z,11.57
2018-06-03T21:49:31.231Z,13.13
2018-06-03T21:52:00.647Z,11.78
2018-06-03T21:54:30.078Z,10.88
2018-06-03T21:56:59.530Z,11.25
2018-06-03T21:59:28.989Z,12.03
2018-06-03T22:01:58.458Z,11.70
2018-06-03T22:04:27.915Z,13.32
2018-06-03T22:06:57.415Z,12.20
2018-06-03T22:09:26.871Z,11.63
2018-06-03T22:11:56.307Z,12.05
2018-06-03T22:14:25.768Z,13.28
2018-06-03T22:16:55.236Z,12.13
2018-06-03T22:19:24.671Z,11.45
2018-06-03T22:21:54.106Z,12.60
2018-06-03T22:24:23.509Z,12.05
2018-06-03T22:26:52.956Z,13.05
2018-06-03T22:29:22.419Z,11.12
2018-06-03T22:31:51.852Z,13.83
2018-06-03T22:34:21.286Z,13.20
2018-06-03T22:36:50.746Z,11.97
2018-06-03T22:39:20.231Z,13.28
2018-06-03T22:41:49.611Z,13.13
2018-06-03T22:44:19.091Z,13.13
2018-06-03T22:46:48.527Z,13.75
2018-06-03T22:49:17.700Z,13.88
2018-06-03T22:51:47.155Z,12.53
2018-06-03T22:54:16.626Z,12.98
2018-06-03T22:58:01.349Z,13.62
2018-06-03T23:00:33.678Z,13.50
2018-06-03T23:03:08.323Z,11.80
2018-06-03T23:05:37.764Z,11.90
2018-06-03T23:08:07.245Z,11.50
2018-06-03T23:10:36.718Z,11.53
2018-06-03T23:13:06.371Z,12.93
2018-06-03T23:15:35.826Z,13.15
2018-06-03T23:18:05.281Z,12.93
2018-06-03T23:20:34.710Z,12.90
2018-06-03T23:23:04.195Z,12.70
2018-06-03T23:25:33.691Z,13.88
2018-06-03T23:28:03.137Z,14.33
2018-06-03T23:30:32.800Z,12.78
2018-06-03T23:33:02.224Z,12.60
2018-06-03T23:35:31.682Z,13.18
2018-06-03T23:38:01.135Z,12.82
2018-06-03T23:40:30.603Z,13.48
2018-06-03T23:43:00.001Z,12.55
2018-06-03T23:45:29.403Z,13.95
2018-06-03T23:47:58.843Z,15.85
2018-06-03T23:50:28.311Z,14.03
2018-06-03T23:52:57.761Z,15.00
2018-06-03T23:55:27.213Z,14.63
2018-06-03T23:57:56.653Z,13.70
